Salmon Gums RES. Station, Western Australia

9:38 AM AWST on October 22, 2014 (GMT +0800)
Esperance | Change Station
CLOSE
Current Station
Airport
Location: Esperance Airport,
Elevation: 469 ft
Nearby Weather Stations

Elev 469 ft 33.68 °S, 121.82 °E | Updated 38 minutes ago

Overcast
Overcast
63 °F
Feels Like 63 °F
N
12
Wind Variable Wind from NE

Today
High -- | Low -- °F
--% Chance of Precip.
Yesterday
High -- | Low -- °F
Precip. -- in
5:05 AM 6:11 PM
Waning Crescent, 3% visible
Pressure 30.18 in
Visibility 6.2 miles
Clouds Overcast 1500 ft
Dew Point 55 °F
Humidity 77%
Rainfall 0.00 in
Snow Depth Not available.
UV 2 out of 12
Pollen Not available.
Air Quality Not available.
Flu Activity Not available.
METAR YESP 220100Z AUTO 05010KT 9999 // OVC015 17/13 Q1022

More Conditions Fewer Conditions

Pressure 30.18 in
Visibility 6.2 miles
Clouds Overcast 1500 ft
Dew Point 55 °F
Humidity 77%
Rainfall 0.00 in
Snow Depth Not available.
UV 2 out of 12
Pollen Not available.
Air Quality Not available.
Flu Activity Not available.
METAR YESP 220100Z AUTO 05010KT 9999 // OVC015 17/13 Q1022

More Conditions Fewer Conditions

10-Day Weather Forecast

Almanac

Astronomy

Oct. 22, 2014 Rise Set
Actual Time 5:05 AM AWST 6:11 PM AWST
Civil Twilight 4:39 AM AWST 6:36 PM AWST
Nautical Twilight 4:09 AM AWST 7:07 PM AWST
Astronomical Twilight 3:38 AM AWST 7:38 PM AWST
Moon 3:59 AM AWST 4:42 PM AWST
Length of Visible Light 13h 57m
Length of Day
13h 06m
Tomorrow will be 1m 56s longer.
Waning Crescent, 3% of the Moon is Illuminated
Oct 21
Waning Crescent
Oct 23
New
Oct 30
First Quarter
Nov 6
Full
Nov 14
Last Quarter

Yesterday's Extremes

Country Highs Country Lows

Community

WunderPhotos

Upload Photos

1,763,844 photos uploaded!

Nearby

Snow Depth

Not available.

Earthquake Activity

City Distance Mag. Time & Date
No recent earthquake activity has been reported nearby.
Minimum magnitude displayed is 2.5.

Coastal Water Temperatures

Place Temperature
No Stations Reporting

Nearby Weather Stations